Time;durP1;ratioP1;P1;durP2;ratioP2;P2;SDS_P1;SDS_P2;PMS_P1;PMS_P2;Temp;Humidity;BMP_temperature;BMP_pressure;BME280_temperature;BME280_humidity;BME280_pressure;Samples;Min_cycle;Max_cycle;Signal;HPM_P1;HPM_P2
2022/01/21 00:01:51;;;;;;;0.03;0.03;;;;;;;2.38;83.50;103605.41;5016163;28;127170;-36
2022/01/21 00:04:16;;;;;;;0.00;0.00;;;;;;;2.41;83.66;103611.72;5017445;28;97747;-36
2022/01/21 00:06:42;;;;;;;0.00;0.00;;;;;;;2.41;83.75;103603.69;5017288;28;96612;-36
2022/01/21 00:09:08;;;;;;;0.00;0.00;;;;;;;2.40;83.37;103598.31;5016473;28;116317;-36
2022/01/21 00:11:35;;;;;;;0.00;0.00;;;;;;;2.40;83.45;103596.53;5015710;28;100739;-36
2022/01/21 00:14:00;;;;;;;0.00;0.00;;;;;;;2.54;83.55;103618.16;5015638;28;100884;-36
2022/01/21 00:16:28;;;;;;;0.52;0.10;;;;;;;2.58;83.61;103622.72;5016116;28;96643;-36
2022/01/21 00:18:59;;;;;;;0.00;0.00;;;;;;;2.39;83.32;103599.19;5016199;28;96882;-36
2022/01/21 00:32:22;;;;;;;0.00;0.00;;;;;;;2.62;83.27;103612.94;5016771;28;97115;-36
2022/01/21 00:34:47;;;;;;;0.00;0.00;;;;;;;2.64;83.60;103621.88;5016112;28;121423;-36
2022/01/21 00:37:13;;;;;;;0.00;0.00;;;;;;;2.63;83.56;103634.38;5017436;28;96664;-36
2022/01/21 00:39:39;;;;;;;0.28;0.20;;;;;;;2.64;83.49;103632.59;5017407;28;96729;-36
2022/01/21 00:42:16;;;;;;;0.17;0.10;;;;;;;2.53;83.72;103619.94;5015363;28;101046;-36
2022/01/21 00:44:41;;;;;;;0.03;0.03;;;;;;;2.58;83.50;103629.84;5016928;28;97850;-36
2022/01/21 00:47:07;;;;;;;0.52;0.25;;;;;;;2.47;83.87;103606.47;5016529;28;108462;-36
2022/01/21 00:49:32;;;;;;;0.00;0.00;;;;;;;2.54;83.51;103616.38;5017405;28;96731;-36
2022/01/21 00:51:58;;;;;;;0.00;0.00;;;;;;;2.43;83.46;103599.28;5016620;28;108621;-36
2022/01/21 00:54:23;;;;;;;0.00;0.00;;;;;;;2.52;83.90;103614.56;5016531;28;98005;-36
2022/01/21 00:56:48;;;;;;;3.38;0.08;;;;;;;2.41;83.76;103600.09;5016011;28;96605;-36
2022/01/21 00:59:14;;;;;;;1.27;0.20;;;;;;;2.28;83.67;103580.28;5015471;28;117597;-36
2022/01/21 01:01:39;;;;;;;0.00;0.00;;;;;;;2.33;83.83;103605.31;5016158;28;98077;-36
2022/01/21 01:04:05;;;;;;;0.45;0.25;;;;;;;2.46;83.81;103622.50;5016762;28;97461;-36
2022/01/21 01:06:31;;;;;;;0.20;0.10;;;;;;;2.34;83.73;103604.47;5015376;28;96479;-36
2022/01/21 01:08:56;;;;;;;0.17;0.13;;;;;;;2.46;84.02;103633.19;5015285;28;96814;-36
2022/01/21 01:11:42;;;;;;;0.10;0.10;;;;;;;2.47;83.89;103638.56;5016352;28;97787;-36
2022/01/21 01:27:53;;;;;;;0.70;0.10;;;;;;;2.31;84.18;103605.31;5015955;28;96620;-36
2022/01/21 01:30:21;;;;;;;0.00;0.00;;;;;;;2.25;84.09;103598.97;5016079;28;96778;-36
2022/01/21 01:32:48;;;;;;;1.75;0.52;;;;;;;2.26;84.25;103587.38;5014522;28;100903;-36
2022/01/21 01:35:17;;;;;;;0.00;0.00;;;;;;;2.28;84.41;103594.53;5014387;28;100865;-36
2022/01/21 01:38:12;;;;;;;0.20;0.10;;;;;;;2.40;84.60;103611.69;5014836;28;96754;-36
2022/01/21 01:40:52;;;;;;;0.45;0.32;;;;;;;2.15;84.21;103562.25;5016072;28;98655;-36
2022/01/21 01:51:01;;;;;;;0.00;0.00;;;;;;;2.24;84.76;103591.78;5016166;28;96748;-36
2022/01/21 01:53:37;;;;;;;0.00;0.00;;;;;;;2.40;84.55;103617.94;5014286;28;101440;-36
2022/01/21 01:56:09;;;;;;;0.00;0.00;;;;;;;2.38;84.46;103605.41;5014223;28;98960;-36
2022/01/21 01:58:35;;;;;;;;;;;;;;;2.40;84.24;103614.34;5014878;28;96803;-36
2022/01/21 02:01:01;;;;;;;0.00;0.00;;;;;;;2.27;84.61;103594.53;5015741;28;96813;-36
2022/01/21 02:03:26;;;;;;;0.90;0.40;;;;;;;2.24;84.48;103589.13;5015584;28;97994;-36
2022/01/21 02:05:51;;;;;;;0.10;0.10;;;;;;;2.36;84.52;103604.47;5015092;28;116435;-36
2022/01/21 02:08:17;;;;;;;0.00;0.00;;;;;;;2.23;84.71;103582.88;5014488;28;96741;-36
2022/01/21 02:10:42;;;;;;;0.00;0.00;;;;;;;2.24;85.09;103592.72;5015605;28;96777;-36
2022/01/21 02:16:10;;;;;;;0.00;0.00;;;;;;;2.24;84.79;103589.13;5015665;28;97025;-36
2022/01/21 02:21:33;;;;;;;0.10;0.08;;;;;;;2.27;85.01;103600.78;5015791;28;96478;-36
2022/01/21 02:24:06;;;;;;;0.22;0.17;;;;;;;2.39;84.92;103634.88;5015363;28;96541;-36
2022/01/21 02:26:33;;;;;;;0.17;0.17;;;;;;;2.36;84.83;103617.84;5013533;28;100768;-36
2022/01/21 02:29:00;;;;;;;0.52;0.20;;;;;;;2.34;85.13;103623.19;5014167;28;96587;-36
2022/01/21 02:31:26;;;;;;;0.00;0.00;;;;;;;2.37;84.92;103625.91;5014360;28;96797;-36
2022/01/21 02:33:51;;;;;;;0.63;0.22;;;;;;;2.39;85.05;103631.28;5015150;28;98034;-36
2022/01/21 02:36:17;;;;;;;0.00;0.00;;;;;;;2.36;85.12;103634.81;5015035;28;97865;-36
2022/01/21 02:38:42;;;;;;;0.00;0.00;;;;;;;2.35;84.84;103633.00;5014987;28;96472;-36
2022/01/21 02:41:08;;;;;;;1.42;0.32;;;;;;;2.38;84.98;103624.13;5013683;28;96834;-36
2022/01/21 02:43:33;;;;;;;0.40;0.30;;;;;;;2.38;84.97;103626.81;5014939;28;97911;-36
2022/01/21 02:46:04;;;;;;;0.00;0.00;;;;;;;2.26;84.97;103604.31;5014871;28;100305;-36
2022/01/21 02:48:29;;;;;;;0.08;0.08;;;;;;;2.28;84.92;103609.69;5015441;28;96640;-36
2022/01/21 02:50:54;;;;;;;0.73;0.25;;;;;;;2.21;84.88;103603.34;5015359;28;96751;-36
2022/01/21 02:53:38;;;;;;;0.45;0.17;;;;;;;2.25;85.01;103615.00;5014042;28;117799;-36
2022/01/21 02:56:05;;;;;;;0.00;0.00;;;;;;;2.25;84.77;103615.00;5013686;28;100798;-36
2022/01/21 02:58:31;;;;;;;0.13;0.00;;;;;;;2.10;85.19;103589.78;5014812;28;96887;-36
2022/01/21 03:00:57;;;;;;;0.00;0.00;;;;;;;2.16;85.03;103609.47;5014426;28;96823;-36
2022/01/21 03:03:22;;;;;;;0.77;0.17;;;;;;;2.20;84.84;103616.69;5014072;28;99502;-36
2022/01/21 03:05:48;;;;;;;0.35;0.32;;;;;;;2.09;84.82;103604.00;5014442;28;99122;-36
2022/01/21 03:08:13;;;;;;;0.35;0.15;;;;;;;2.02;85.15;103601.22;5014751;28;96592;-36
2022/01/21 03:10:38;;;;;;;0.20;0.20;;;;;;;1.99;84.93;103593.13;5015160;28;96675;-36
2022/01/21 03:13:04;;;;;;;0.03;0.03;;;;;;;2.00;84.86;103592.25;5012851;28;111914;-36
2022/01/21 03:15:29;;;;;;;0.00;0.00;;;;;;;2.00;85.50;103598.53;5013665;28;126032;-36
2022/01/21 03:17:54;;;;;;;0.03;0.00;;;;;;;1.95;85.66;103585.94;5014986;28;97334;-36
2022/01/21 03:20:19;;;;;;;0.00;0.00;;;;;;;2.01;85.18;103592.28;5013958;28;114365;-36
2022/01/21 03:22:45;;;;;;;0.00;0.00;;;;;;;2.02;85.18;103588.72;5014324;28;97397;-37
2022/01/21 03:25:10;;;;;;;0.30;0.25;;;;;;;1.98;85.43;103588.66;5014441;28;97178;-36
2022/01/21 03:27:35;;;;;;;0.00;0.00;;;;;;;2.05;85.47;103607.53;5014389;28;96496;-36
2022/01/21 03:30:04;;;;;;;12.60;0.10;;;;;;;2.01;85.31;103597.63;5014803;28;96724;-36
2022/01/21 03:32:29;;;;;;;0.00;0.00;;;;;;;1.90;85.14;103578.72;5012805;28;102351;-36
2022/01/21 03:34:55;;;;;;;0.65;0.15;;;;;;;2.06;85.27;103598.63;5012324;28;110922;-36
2022/01/21 03:37:20;;;;;;;0.15;0.10;;;;;;;2.03;85.03;103587.88;5013736;28;113123;-36
2022/01/21 03:39:46;;;;;;;0.00;0.00;;;;;;;2.03;85.35;103593.22;5014764;28;96767;-36
2022/01/21 03:42:11;;;;;;;0.10;0.10;;;;;;;2.10;85.47;103618.31;5014340;28;97433;-36
2022/01/21 03:44:37;;;;;;;0.00;0.00;;;;;;;2.02;85.60;103601.22;5013656;28;123626;-36
2022/01/21 03:47:03;;;;;;;0.00;0.00;;;;;;;2.11;85.22;103617.41;5014504;28;96709;-36
2022/01/21 03:49:35;;;;;;;1.27;0.10;;;;;;;2.11;85.32;103629.00;5014277;28;96806;-36
2022/01/21 03:52:01;;;;;;;0.00;0.00;;;;;;;2.05;85.05;103619.97;5013677;28;97926;-36
2022/01/21 03:54:26;;;;;;;0.00;0.00;;;;;;;2.02;85.58;103618.13;5014048;28;97779;-36
2022/01/21 03:56:51;;;;;;;0.00;0.00;;;;;;;2.08;85.31;103638.75;5013410;28;113723;-36
2022/01/21 03:59:16;;;;;;;4.22;0.22;;;;;;;2.05;85.64;103634.25;5013138;28;116789;-36
2022/01/21 04:01:42;;;;;;;0.00;0.00;;;;;;;2.02;85.64;103630.59;5012760;28;127093;-36
2022/01/21 04:04:07;;;;;;;0.00;0.00;;;;;;;2.01;85.51;103636.84;5014067;28;97838;-36
2022/01/21 04:06:32;;;;;;;0.00;0.00;;;;;;;1.95;85.45;103629.59;5013126;28;117043;-36
2022/01/21 04:08:58;;;;;;;2.10;0.40;;;;;;;1.99;85.41;103650.16;5014664;28;96789;-36
2022/01/21 04:11:23;;;;;;;3.03;0.10;;;;;;;1.91;85.84;103641.13;5012761;28;127511;-36
2022/01/21 04:13:48;;;;;;;0.05;0.05;;;;;;;1.94;86.00;103645.63;5012956;28;125726;-36
2022/01/21 04:16:13;;;;;;;0.03;0.03;;;;;;;1.91;85.79;103642.00;5013419;28;96568;-36
2022/01/21 04:18:39;;;;;;;0.00;0.00;;;;;;;1.89;85.81;103648.19;5011890;28;117436;-36
2022/01/21 04:21:04;;;;;;;0.00;0.00;;;;;;;1.76;85.45;103624.75;5013296;28;119439;-36
2022/01/21 04:23:29;;;;;;;0.00;0.00;;;;;;;1.76;85.72;103630.09;5013828;28;97878;-36
2022/01/21 04:25:55;;;;;;;0.00;0.00;;;;;;;1.76;85.24;103625.66;5014143;28;96454;-36
2022/01/21 04:28:21;;;;;;;0.38;0.30;;;;;;;1.75;85.66;103623.88;5012477;28;96887;-36
2022/01/21 04:30:46;;;;;;;0.00;0.00;;;;;;;1.80;85.71;103627.53;5014496;28;100232;-36
2022/01/21 04:33:12;;;;;;;0.00;0.00;;;;;;;1.81;85.63;103633.75;5017370;28;97313;-36
2022/01/21 04:35:40;;;;;;;0.20;0.20;;;;;;;1.81;85.89;103641.78;5015800;28;96530;-36
2022/01/21 04:38:08;;;;;;;0.00;0.00;;;;;;;1.69;85.84;103624.66;5015684;28;96888;-36
2022/01/21 04:40:40;;;;;;;0.00;0.00;;;;;;;1.65;85.69;103622.78;5016292;28;98025;-36
2022/01/21 04:48:34;;;;;;;0.20;0.17;;;;;;;1.62;86.02;103621.78;5017388;28;96541;-36
2022/01/21 04:51:20;;;;;;;0.00;0.00;;;;;;;1.73;85.87;103648.75;5015292;28;101010;-36
2022/01/21 04:53:47;;;;;;;0.22;0.17;;;;;;;1.59;85.91;103630.66;5015214;28;101171;-36
2022/01/21 04:56:14;;;;;;;0.00;0.00;;;;;;;1.60;85.48;103632.47;5015416;28;96610;-36
2022/01/21 04:58:40;;;;;;;0.35;0.20;;;;;;;1.61;85.68;103634.25;5015458;28;96818;-36
2022/01/21 05:01:06;;;;;;;0.00;0.00;;;;;;;1.65;85.87;103641.47;5015910;28;97849;-36
2022/01/21 05:03:33;;;;;;;0.00;0.00;;;;;;;1.71;85.56;103648.72;5015098;28;101383;-36
2022/01/21 05:06:00;;;;;;;0.15;0.10;;;;;;;1.68;85.44;103633.50;5014755;28;96561;-36
2022/01/21 05:08:32;;;;;;;0.03;0.03;;;;;;;1.54;85.76;103610.97;5016618;28;96767;-36
2022/01/21 05:10:57;;;;;;;0.80;0.45;;;;;;;1.58;85.56;103615.50;5016358;28;99370;-36
2022/01/21 05:13:26;;;;;;;0.00;0.00;;;;;;;1.60;85.67;103618.22;5016306;28;98073;-36
2022/01/21 05:16:06;;;;;;;0.13;0.10;;;;;;;1.74;85.70;103642.53;5016412;28;96628;-36
2022/01/21 05:18:31;;;;;;;0.00;0.00;;;;;;;1.62;86.13;103614.72;5015293;28;96747;-36
2022/01/21 05:20:57;;;;;;;0.00;0.00;;;;;;;1.59;86.10;103614.63;5016325;28;97831;-36
2022/01/21 05:23:23;;;;;;;0.00;0.00;;;;;;;1.70;85.59;103630.88;5016699;28;97587;-36
2022/01/21 05:25:49;;;;;;;0.00;0.00;;;;;;;1.52;86.02;103604.69;5014945;28;96800;-36
2022/01/21 05:28:14;;;;;;;0.00;0.00;;;;;;;1.60;86.01;103620.91;5014937;28;96592;-36
2022/01/21 05:30:40;;;;;;;0.10;0.10;;;;;;;1.57;85.74;103612.78;5015657;28;97903;-36
2022/01/21 05:33:05;;;;;;;0.00;0.00;;;;;;;1.49;85.79;103608.19;5016085;28;97879;-36
2022/01/21 05:35:30;;;;;;;0.00;0.00;;;;;;;1.52;85.95;103617.16;5015542;28;113646;-36
2022/01/21 05:37:56;;;;;;;0.00;0.00;;;;;;;1.48;86.03;103610.84;5016105;28;96777;-36
2022/01/21 05:40:22;;;;;;;0.20;0.20;;;;;;;1.49;85.50;103613.53;5015172;28;118823;-36
2022/01/21 05:42:47;;;;;;;0.00;0.00;;;;;;;1.61;85.80;103625.34;5014156;28;100768;-36
2022/01/21 05:47:56;;;;;;;4.03;0.38;;;;;;;1.44;86.16;103601.88;5016651;28;96470;-36
2022/01/21 05:50:22;;;;;;;0.00;0.00;;;;;;;1.54;85.72;103620.75;5015900;28;97926;-36
2022/01/21 05:52:48;;;;;;;0.10;0.05;;;;;;;1.53;85.86;103632.31;5015625;28;97823;-36
2022/01/21 05:55:14;;;;;;;0.80;0.28;;;;;;;1.56;85.76;103627.03;5013928;28;96545;-36
2022/01/21 05:57:48;;;;;;;0.45;0.25;;;;;;;1.40;85.72;103596.44;5014466;28;96878;-36
2022/01/21 06:00:15;;;;;;;0.00;0.00;;;;;;;1.44;86.21;103607.19;5014930;28;98986;-36
2022/01/21 06:02:40;;;;;;;0.00;0.00;;;;;;;1.60;86.62;103632.47;5014288;28;101575;-36
2022/01/21 06:05:06;;;;;;;0.08;0.03;;;;;;;1.65;86.26;103637.91;5016060;28;96543;-36
2022/01/21 06:07:32;;;;;;;0.00;0.00;;;;;;;1.67;86.09;103637.06;5015465;28;97068;-36
2022/01/21 06:09:57;;;;;;;0.15;0.15;;;;;;;1.58;86.76;103614.63;5015576;28;97957;-36
2022/01/21 06:12:22;;;;;;;0.93;0.55;;;;;;;1.55;86.78;103610.13;5015284;28;116332;-36
2022/01/21 06:14:48;;;;;;;0.00;0.00;;;;;;;1.65;86.74;103619.22;5016011;28;96614;-36
2022/01/21 06:17:13;;;;;;;0.10;0.10;;;;;;;1.80;86.17;103642.66;5015862;28;96715;-36
2022/01/21 06:19:39;;;;;;;0.40;0.05;;;;;;;1.69;86.27;103624.66;5013328;28;99383;-36
2022/01/21 06:22:06;;;;;;;0.10;0.05;;;;;;;1.82;85.92;103649.84;5013716;28;101455;-36
2022/01/21 06:24:31;;;;;;;0.00;0.00;;;;;;;1.82;86.00;103656.97;5014170;28;96734;-36
2022/01/21 06:27:01;;;;;;;0.20;0.15;;;;;;;1.75;86.54;103639.91;5015540;28;96783;-36
2022/01/21 06:29:39;;;;;;;0.05;0.05;;;;;;;1.89;86.31;103659.78;5014926;28;98022;-36
2022/01/21 06:32:04;;;;;;;0.00;0.00;;;;;;;1.92;85.95;103664.28;5015086;28;97375;-36
2022/01/21 06:34:42;;;;;;;0.05;0.05;;;;;;;1.91;85.69;103657.16;5015305;28;96686;-36
2022/01/21 06:37:07;;;;;;;0.08;0.08;;;;;;;1.83;86.07;103648.06;5015056;28;111915;-36
2022/01/21 06:39:32;;;;;;;0.28;0.08;;;;;;;1.89;86.62;103658.88;5015038;28;97919;-36
2022/01/21 06:41:58;;;;;;;0.15;0.05;;;;;;;1.98;86.23;103668.84;5014961;28;98067;-36
2022/01/21 06:44:23;;;;;;;0.10;0.05;;;;;;;1.96;86.38;103671.50;5013947;28;116855;-36
2022/01/21 06:46:48;;;;;;;0.08;0.08;;;;;;;1.94;86.44;103658.97;5015429;28;96739;-36
2022/01/21 06:49:14;;;;;;;0.55;0.25;;;;;;;2.00;86.61;103681.38;5014764;28;98173;-36
2022/01/21 06:51:39;;;;;;;4.18;0.70;;;;;;;1.82;87.17;103643.59;5015319;28;96930;-36
2022/01/21 06:54:04;;;;;;;0.17;0.03;;;;;;;2.01;86.72;103680.50;5014289;28;96573;-36
2022/01/21 06:56:30;;;;;;;0.00;0.00;;;;;;;1.89;86.20;103653.53;5015105;28;96887;-36
2022/01/21 06:58:56;;;;;;;0.75;0.35;;;;;;;1.89;86.19;103656.22;5014625;28;98038;-36
2022/01/21 07:01:21;;;;;;;0.00;0.00;;;;;;;1.82;86.36;103643.59;5012761;28;101613;-36
2022/01/21 07:03:47;;;;;;;0.22;0.22;;;;;;;1.82;86.37;103641.81;5014193;28;106663;-36
2022/01/21 07:06:12;;;;;;;0.00;0.00;;;;;;;1.92;86.16;103670.53;5014064;28;115931;-36
2022/01/21 07:08:37;;;;;;;0.03;0.03;;;;;;;1.77;86.31;103648.84;5014330;28;97879;-36
2022/01/21 07:11:02;;;;;;;0.47;0.20;;;;;;;1.87;86.23;103676.66;5014345;28;98590;-36
2022/01/21 07:13:28;;;;;;;0.00;0.00;;;;;;;1.85;86.50;103678.38;5014041;28;115660;-36
2022/01/21 07:15:53;;;;;;;0.00;0.00;;;;;;;1.77;86.66;103664.00;5014599;28;96812;-36
2022/01/21 07:18:18;;;;;;;0.47;0.30;;;;;;;1.65;86.75;103643.25;5014448;28;97858;-36
2022/01/21 07:20:44;;;;;;;5.82;0.30;;;;;;;1.74;86.76;103677.25;5012889;28;99618;-36
2022/01/21 07:23:09;;;;;;;0.43;0.20;;;;;;;1.59;86.54;103644.00;5013605;28;97248;-36
2022/01/21 07:25:35;;;;;;;0.00;0.00;;;;;;;1.63;86.42;103663.69;5015341;28;96844;-36
2022/01/21 07:28:01;;;;;;;1.02;0.15;;;;;;;1.63;86.87;103682.38;5012878;28;100872;-36
2022/01/21 07:30:26;;;;;;;0.10;0.10;;;;;;;1.60;86.63;103672.53;5014073;28;99472;-36
2022/01/21 07:32:52;;;;;;;1.27;0.40;;;;;;;1.60;86.48;103690.34;5013958;28;96695;-37
2022/01/21 07:35:17;;;;;;;0.00;0.00;;;;;;;1.43;86.45;103655.22;5013582;28;117266;-36
2022/01/21 07:37:42;;;;;;;0.00;0.00;;;;;;;1.46;87.01;103672.25;5014410;28;97850;-36
2022/01/21 07:40:08;;;;;;;0.13;0.13;;;;;;;1.43;86.84;103669.50;5014195;28;97873;-36
2022/01/21 07:42:34;;;;;;;0.30;0.30;;;;;;;1.50;86.90;103694.56;5014460;28;96537;-36
2022/01/21 07:44:59;;;;;;;0.22;0.13;;;;;;;1.42;87.12;103680.16;5014667;28;96788;-36
2022/01/21 07:47:25;;;;;;;0.05;0.00;;;;;;;1.39;86.85;103672.97;5014067;28;97829;-37
2022/01/21 07:49:50;;;;;;;0.10;0.10;;;;;;;1.37;86.58;103671.13;5014522;28;97291;-36
2022/01/21 07:52:16;;;;;;;0.28;0.20;;;;;;;1.44;86.85;103681.97;5014376;28;96640;-36
2022/01/21 07:54:42;;;;;;;0.38;0.28;;;;;;;1.41;86.72;103683.69;5014299;28;96739;-36
2022/01/21 07:57:08;;;;;;;1.55;0.20;;;;;;;1.43;86.59;103692.63;5013343;28;99271;-36
2022/01/21 07:59:34;;;;;;;0.10;0.10;;;;;;;1.38;86.73;103688.94;5012462;28;100791;-36
2022/01/21 08:01:59;;;;;;;0.73;0.20;;;;;;;1.28;86.67;103663.81;5013630;28;96758;-36
2022/01/21 08:04:25;;;;;;;0.10;0.10;;;;;;;1.38;86.64;103686.28;4996516;28;106254;-36
2022/01/21 08:06:50;;;;;;;2.53;1.00;;;;;;;1.42;86.92;103690.81;4997282;28;97925;-36
2022/01/21 08:09:16;;;;;;;3.65;1.08;;;;;;;1.27;86.58;103652.22;4997447;28;102128;-36
2022/01/21 08:11:41;;;;;;;2.05;0.93;;;;;;;1.40;86.83;103681.88;4997030;28;97157;-36
2022/01/21 08:14:06;;;;;;;0.95;0.52;;;;;;;1.30;86.97;103656.75;4998022;28;96741;-36
2022/01/21 08:16:34;;;;;;;2.75;1.30;;;;;;;1.48;86.88;103694.53;4996247;28;125176;-37
2022/01/21 08:19:00;;;;;;;0.75;0.45;;;;;;;1.43;86.37;103676.59;4997068;28;97865;-36
2022/01/21 08:21:26;;;;;;;1.17;0.80;;;;;;;1.55;86.36;103692.91;4996850;28;96512;-37
2022/01/21 08:23:53;;;;;;;1.17;0.80;;;;;;;1.35;86.89;103648.84;4996887;28;113009;-36
2022/01/21 08:26:23;;;;;;;0.65;0.52;;;;;;;1.68;86.76;103699.41;4995644;28;100737;-36
2022/01/21 08:28:49;;;;;;;0.17;0.17;;;;;;;1.65;86.82;103681.56;4995560;28;100753;-36
2022/01/21 08:31:15;;;;;;;0.20;0.20;;;;;;;1.83;87.16;103693.47;4995726;28;96648;-36
2022/01/21 08:33:40;;;;;;;0.47;0.22;;;;;;;1.80;87.47;103683.63;4995818;28;96822;-36
2022/01/21 08:36:07;;;;;;;0.10;0.10;;;;;;;1.88;87.26;103689.13;4995469;28;100722;-36
2022/01/21 08:38:33;;;;;;;0.00;0.00;;;;;;;2.08;87.01;103706.50;4997202;28;99282;-36
2022/01/21 08:40:58;;;;;;;0.65;0.30;;;;;;;2.05;86.83;103669.00;4995804;28;96550;-36
2022/01/21 08:43:24;;;;;;;2.63;0.38;;;;;;;2.19;86.98;103676.38;4995341;28;110387;-36
2022/01/21 08:45:49;;;;;;;0.43;0.35;;;;;;;2.29;87.33;103689.97;4996092;28;97875;-36
2022/01/21 08:48:14;;;;;;;1.92;0.77;;;;;;;2.33;87.08;103683.78;4995905;28;125464;-36
2022/01/21 08:50:40;;;;;;;0.15;0.15;;;;;;;2.31;86.80;103663.22;4996639;28;101940;-36
2022/01/21 08:55:50;;;;;;;0.13;0.13;;;;;;;2.46;87.12;103671.56;4996869;28;97078;-36
2022/01/21 08:58:15;;;;;;;0.85;0.30;;;;;;;2.67;86.78;103681.72;4996439;28;97358;-36
2022/01/21 09:00:41;;;;;;;1.58;0.40;;;;;;;2.80;87.16;103668.56;4995427;28;112418;-36
2022/01/21 09:03:06;;;;;;;0.32;0.20;;;;;;;2.90;86.94;103671.38;4997332;28;96698;-36
2022/01/21 09:05:31;;;;;;;0.10;0.10;;;;;;;2.89;87.05;103658.00;4994186;28;124278;-36
2022/01/21 09:07:57;;;;;;;0.22;0.17;;;;;;;2.95;86.88;103653.59;4995902;28;122483;-36
2022/01/21 09:10:22;;;;;;;0.03;0.03;;;;;;;3.14;86.50;103681.56;4995737;28;113488;-36
2022/01/21 09:12:47;;;;;;;0.00;0.00;;;;;;;3.08;86.31;103652.03;4995928;28;113164;-37
2022/01/21 09:15:12;;;;;;;1.10;0.13;;;;;;;3.28;85.96;103670.19;4977705;28;113925;-36
2022/01/21 09:17:39;;;;;;;0.85;0.40;;;;;;;3.12;86.04;103640.50;4995637;28;99357;-36
2022/01/21 09:20:05;;;;;;;0.00;0.00;;;;;;;3.29;85.70;103655.88;4996598;28;96555;-36
2022/01/21 09:22:31;;;;;;;8.68;0.30;;;;;;;3.48;86.28;103679.41;4994998;28;96804;-36
2022/01/21 09:24:56;;;;;;;0.13;0.13;;;;;;;3.57;85.90;103678.59;4996269;28;97648;-36
2022/01/21 09:27:21;;;;;;;0.00;0.00;;;;;;;3.48;85.61;103655.28;4996256;28;110585;-36
2022/01/21 09:29:46;;;;;;;0.68;0.45;;;;;;;3.59;85.57;103668.81;4996528;28;96552;-36
2022/01/21 09:32:12;;;;;;;6.22;0.30;;;;;;;3.59;85.74;103652.72;4996109;28;96925;-36
2022/01/21 09:34:37;;;;;;;1.90;0.57;;;;;;;3.75;85.56;103676.19;4995671;28;97862;-36
2022/01/21 09:37:03;;;;;;;2.60;0.35;;;;;;;3.77;85.48;103666.38;4993530;28;127171;-37
2022/01/21 09:39:29;;;;;;;0.55;0.20;;;;;;;3.80;85.27;103658.34;4994848;28;96488;-36
2022/01/21 09:42:01;;;;;;;0.00;0.00;;;;;;;3.77;85.34;103639.56;4996303;28;96448;-37
2022/01/21 09:44:28;;;;;;;0.10;0.10;;;;;;;4.01;85.41;103672.91;4994403;28;100836;-36
2022/01/21 09:46:57;;;;;;;0.40;0.30;;;;;;;3.94;85.44;103655.84;4994409;28;99935;-36
2022/01/21 09:49:26;;;;;;;0.22;0.10;;;;;;;3.99;85.52;103659.47;4994769;28;96605;-36
2022/01/21 09:52:03;;;;;;;0.15;0.15;;;;;;;4.19;85.25;103673.09;4995152;28;96708;-36
2022/01/21 09:54:38;;;;;;;3.50;0.15;;;;;;;4.23;85.94;103691.03;4994152;28;101153;-36
2022/01/21 09:57:07;;;;;;;0.90;0.50;;;;;;;4.21;85.49;103687.44;4994219;28;100594;-36
2022/01/21 09:59:35;;;;;;;0.43;0.20;;;;;;;4.21;86.14;103684.75;4993669;28;96632;-36
2022/01/21 10:02:05;;;;;;;0.50;0.25;;;;;;;4.24;86.04;103695.53;4994320;28;96869;-36
2022/01/21 10:04:33;;;;;;;0.65;0.20;;;;;;;4.17;85.71;103682.94;4994150;28;101590;-36
2022/01/21 10:07:00;;;;;;;1.13;0.47;;;;;;;4.20;85.82;103685.66;4993821;28;100908;-36
2022/01/21 10:09:26;;;;;;;0.25;0.22;;;;;;;4.36;85.39;103713.56;4994279;28;96825;-36
2022/01/21 10:11:54;;;;;;;0.75;0.40;;;;;;;4.41;86.07;103702.81;4994282;28;96797;-36
2022/01/21 10:14:21;;;;;;;0.43;0.28;;;;;;;4.45;86.16;103708.25;4993897;28;100963;-36
2022/01/21 10:16:48;;;;;;;0.15;0.00;;;;;;;4.53;86.10;103707.44;4994267;28;100865;-36
2022/01/21 10:19:24;;;;;;;2.45;0.52;;;;;;;4.56;85.51;103694.06;4995697;28;96772;-36
2022/01/21 10:22:08;;;;;;;10.65;0.63;;;;;;;4.80;85.68;103709.47;4995051;28;96852;-37
2022/01/21 10:24:49;;;;;;;0.00;0.00;;;;;;;4.96;86.01;103705.13;4994954;28;97879;-36
2022/01/21 10:27:38;;;;;;;3.40;0.20;;;;;;;5.13;85.14;103724.97;4993807;28;100888;-36
2022/01/21 10:30:19;;;;;;;0.15;0.00;;;;;;;5.07;85.28;103709.69;4992646;28;96676;-37
2022/01/21 10:32:44;;;;;;;1.60;0.45;;;;;;;5.20;85.44;103731.31;4994206;28;96668;-37
2022/01/21 10:35:31;;;;;;;0.00;0.00;;;;;;;5.22;85.10;103729.50;4995164;28;97933;-36
2022/01/21 10:38:14;;;;;;;0.22;0.10;;;;;;;5.24;85.03;103725.97;4995201;28;97825;-36
2022/01/21 10:40:39;;;;;;;0.35;0.28;;;;;;;5.10;85.14;103687.31;4993956;28;96652;-36
2022/01/21 10:43:15;;;;;;;0.05;0.05;;;;;;;5.32;85.38;103708.09;4994683;28;116439;-36
2022/01/21 10:45:52;;;;;;;0.22;0.13;;;;;;;5.30;85.06;103677.63;4993475;28;99055;-36
2022/01/21 10:48:18;;;;;;;7.53;0.45;;;;;;;5.32;85.15;103673.16;4993443;28;101219;-36
2022/01/21 10:50:43;;;;;;;7.88;0.30;;;;;;;5.45;85.39;103700.09;4994423;28;96588;-37
2022/01/21 10:53:26;;;;;;;0.13;0.08;;;;;;;5.41;85.53;103692.91;4995012;28;96812;-36
2022/01/21 10:55:52;;;;;;;0.30;0.20;;;;;;;5.26;85.63;103674.91;4993260;28;101176;-36
2022/01/21 10:58:21;;;;;;;0.17;0.05;;;;;;;5.35;85.52;103701.84;4994769;28;97347;-36
2022/01/21 11:01:10;;;;;;;0.38;0.22;;;;;;;5.25;85.89;103678.50;4993079;28;96925;-36
2022/01/21 11:03:39;;;;;;;0.47;0.05;;;;;;;5.35;85.71;103688.41;4995140;28;96587;-36
2022/01/21 11:06:18;;;;;;;0.40;0.25;;;;;;;5.35;85.77;103688.41;4993314;28;101018;-36
2022/01/21 11:08:44;;;;;;;0.70;0.35;;;;;;;5.19;86.10;103663.19;4995214;28;97881;-36
2022/01/21 11:11:09;;;;;;;1.02;0.47;;;;;;;5.38;85.81;103701.84;4994790;28;96515;-36
2022/01/21 11:13:40;;;;;;;7.10;0.25;;;;;;;5.39;85.51;103689.34;4994882;28;96796;-36
2022/01/21 11:16:13;;;;;;;0.63;0.33;;;;;;;5.40;85.41;103691.13;4994265;28;97957;-36
2022/01/21 11:18:54;;;;;;;1.02;0.32;;;;;;;5.36;85.17;103682.13;4993111;28;100762;-36
2022/01/21 11:21:20;;;;;;;3.60;0.52;;;;;;;5.23;85.13;103656.97;4994988;28;96540;-36
2022/01/21 11:23:46;;;;;;;0.00;0.00;;;;;;;5.36;85.25;103674.06;4994622;28;96428;-36
2022/01/21 11:26:14;;;;;;;0.25;0.05;;;;;;;5.50;84.86;103701.91;4992627;28;99018;-36
2022/01/21 11:28:49;;;;;;;0.00;0.00;;;;;;;5.53;84.94;103696.56;4994354;28;97887;-36
2022/01/21 11:31:19;;;;;;;0.17;0.15;;;;;;;5.48;85.13;103679.53;4994832;28;96625;-36
2022/01/21 11:33:45;;;;;;;4.07;0.75;;;;;;;5.62;84.44;103701.09;4993590;28;96885;-36
2022/01/21 11:36:11;;;;;;;4.45;0.13;;;;;;;5.63;84.58;103692.16;4994303;28;98004;-36
2022/01/21 11:38:40;;;;;;;0.00;0.00;;;;;;;5.54;84.33;103674.16;4994437;28;97173;-36
2022/01/21 11:41:08;;;;;;;1.13;0.70;;;;;;;5.39;84.44;103649.91;4995361;28;96692;-36
2022/01/21 11:47:02;;;;;;;1.38;0.80;;;;;;;5.67;84.28;103677.84;4997502;28;97022;-36
2022/01/21 11:49:32;;;;;;;1.05;0.15;;;;;;;5.68;84.70;103666.16;4996344;28;100728;-36
2022/01/21 11:52:11;;;;;;;0.73;0.15;;;;;;;5.90;84.25;103680.59;4997805;28;96732;-36
2022/01/21 11:54:37;;;;;;;0.00;0.00;;;;;;;5.95;83.99;103676.16;4997841;28;96739;-36
2022/01/21 11:57:06;;;;;;;2.70;0.43;;;;;;;5.97;84.03;103661.84;4997620;28;97893;-36
2022/01/21 11:59:37;;;;;;;2.53;0.28;;;;;;;5.97;84.13;103660.03;4996032;28;100919;-36
2022/01/21 12:02:26;;;;;;;0.20;0.20;;;;;;;5.86;84.98;103659.94;4997987;28;96621;-36
2022/01/21 12:04:57;;;;;;;0.52;0.10;;;;;;;5.80;85.36;103669.81;4998026;28;96580;-36
2022/01/21 12:07:35;;;;;;;0.38;0.17;;;;;;;5.72;85.81;103668.00;4995638;28;100832;-36
2022/01/21 12:10:10;;;;;;;1.20;0.65;;;;;;;5.61;85.67;103642.84;4997247;28;97961;-36
2022/01/21 12:13:31;;;;;;;0.73;0.45;;;;;;;5.40;85.93;103613.16;4996276;28;96765;-36
2022/01/21 12:19:09;;;;;;;5.07;0.20;;;;;;;5.52;86.17;103643.69;4997029;28;97648;-37
2022/01/21 12:21:41;;;;;;;0.93;0.70;;;;;;;5.53;85.75;103642.81;4995905;28;100967;-36
2022/01/21 12:24:08;;;;;;;1.17;0.55;;;;;;;5.63;85.82;103645.53;4995955;28;96794;-36
2022/01/21 12:26:34;;;;;;;5.03;0.80;;;;;;;5.63;85.82;103656.31;4997687;28;96768;-36
2022/01/21 12:28:59;;;;;;;1.00;0.30;;;;;;;5.68;85.92;103658.09;4997250;28;97881;-36
2022/01/21 12:31:47;;;;;;;1.48;0.70;;;;;;;5.69;86.12;103650.94;4996887;28;108144;-36